sensor_id;sensor_type;location;lat;lon;timestamp;pressure;altitude;pressure_sealevel;temperature;humidity
17383;BME280;8809;51.892;8.384;2023-03-21T00:02:24;100682.72;;;9.02;100.00
17383;BME280;8809;51.892;8.384;2023-03-21T00:04:52;100688.94;;;9.06;100.00
17383;BME280;8809;51.892;8.384;2023-03-21T00:07:19;100688.94;;;9.06;100.00
17383;BME280;8809;51.892;8.384;2023-03-21T00:09:47;100683.81;;;9.07;100.00
17383;BME280;8809;51.892;8.384;2023-03-21T00:12:14;100677.88;;;9.10;100.00
17383;BME280;8809;51.892;8.384;2023-03-21T00:14:42;100676.09;;;9.09;100.00
17383;BME280;8809;51.892;8.384;2023-03-21T00:17:09;100683.16;;;9.11;100.00
17383;BME280;8809;51.892;8.384;2023-03-21T00:19:36;100677.06;;;9.11;100.00
17383;BME280;8809;51.892;8.384;2023-03-21T00:22:05;100680.63;;;9.13;100.00
17383;BME280;8809;51.892;8.384;2023-03-21T00:24:32;100678.88;;;9.13;100.00
17383;BME280;8809;51.892;8.384;2023-03-21T00:27:01;100675.47;;;9.14;100.00
17383;BME280;8809;51.892;8.384;2023-03-21T00:29:28;100669.31;;;9.12;100.00
17383;BME280;8809;51.892;8.384;2023-03-21T00:31:54;100665.00;;;9.13;100.00
17383;BME280;8809;51.892;8.384;2023-03-21T00:34:21;100667.66;;;9.14;100.00
17383;BME280;8809;51.892;8.384;2023-03-21T00:36:48;100664.41;;;9.18;100.00
17383;BME280;8809;51.892;8.384;2023-03-21T00:39:16;100660.97;;;9.19;100.00
17383;BME280;8809;51.892;8.384;2023-03-21T00:41:42;100663.78;;;9.24;100.00
17383;BME280;8809;51.892;8.384;2023-03-21T00:44:11;100659.47;;;9.24;100.00
17383;BME280;8809;51.892;8.384;2023-03-21T00:46:40;100664.69;;;9.24;100.00
17383;BME280;8809;51.892;8.384;2023-03-21T00:49:06;100655.09;;;9.23;100.00
17383;BME280;8809;51.892;8.384;2023-03-21T00:51:33;100652.44;;;9.22;100.00
17383;BME280;8809;51.892;8.384;2023-03-21T00:54:00;100655.94;;;9.22;100.00
17383;BME280;8809;51.892;8.384;2023-03-21T00:56:30;100653.19;;;9.19;100.00
17383;BME280;8809;51.892;8.384;2023-03-21T00:58:57;100643.41;;;9.15;100.00
17383;BME280;8809;51.892;8.384;2023-03-21T01:01:25;100640.81;;;9.15;100.00
17383;BME280;8809;51.892;8.384;2023-03-21T01:03:56;100643.41;;;9.15;100.00
17383;BME280;8809;51.892;8.384;2023-03-21T01:06:28;100637.25;;;9.13;100.00
17383;BME280;8809;51.892;8.384;2023-03-21T01:08:55;100638.09;;;9.12;100.00
17383;BME280;8809;51.892;8.384;2023-03-21T01:11:24;100632.03;;;9.13;100.00
17383;BME280;8809;51.892;8.384;2023-03-21T01:13:52;100639.00;;;9.13;100.00
17383;BME280;8809;51.892;8.384;2023-03-21T01:16:19;100632.94;;;9.14;100.00
17383;BME280;8809;51.892;8.384;2023-03-21T01:18:47;100633.00;;;9.15;100.00
17383;BME280;8809;51.892;8.384;2023-03-21T01:21:15;100626.91;;;9.15;100.00
17383;BME280;8809;51.892;8.384;2023-03-21T01:23:43;100627.81;;;9.15;100.00
17383;BME280;8809;51.892;8.384;2023-03-21T01:26:12;100628.69;;;9.16;100.00
17383;BME280;8809;51.892;8.384;2023-03-21T01:28:40;100624.38;;;9.16;100.00
17383;BME280;8809;51.892;8.384;2023-03-21T01:31:09;100620.06;;;9.17;100.00
17383;BME280;8809;51.892;8.384;2023-03-21T01:33:36;100619.25;;;9.18;100.00
17383;BME280;8809;51.892;8.384;2023-03-21T01:36:06;100614.94;;;9.18;100.00
17383;BME280;8809;51.892;8.384;2023-03-21T01:38:33;100618.53;;;9.20;100.00
17383;BME280;8809;51.892;8.384;2023-03-21T01:41:01;100618.53;;;9.20;100.00
17383;BME280;8809;51.892;8.384;2023-03-21T01:43:29;100618.53;;;9.20;100.00
17383;BME280;8809;51.892;8.384;2023-03-21T01:48:59;100616.03;;;9.23;100.00
17383;BME280;8809;51.892;8.384;2023-03-21T01:51:31;100620.34;;;9.23;100.00
17383;BME280;8809;51.892;8.384;2023-03-21T01:54:00;100613.50;;;9.25;100.00
17383;BME280;8809;51.892;8.384;2023-03-21T01:56:30;100613.59;;;9.26;100.00
17383;BME280;8809;51.892;8.384;2023-03-21T01:59:01;100611.88;;;9.27;100.00
17383;BME280;8809;51.892;8.384;2023-03-21T02:01:31;100611.97;;;9.28;100.00
17383;BME280;8809;51.892;8.384;2023-03-21T02:04:00;100600.56;;;9.26;100.00
17383;BME280;8809;51.892;8.384;2023-03-21T02:06:34;100602.38;;;9.27;100.00
17383;BME280;8809;51.892;8.384;2023-03-21T02:09:04;100603.34;;;9.29;100.00
17383;BME280;8809;51.892;8.384;2023-03-21T02:11:34;100595.53;;;9.29;100.00
17383;BME280;8809;51.892;8.384;2023-03-21T02:14:01;100594.69;;;9.30;100.00
17383;BME280;8809;51.892;8.384;2023-03-21T02:16:40;100592.91;;;9.29;100.00
17383;BME280;8809;51.892;8.384;2023-03-21T02:22:38;100586.97;;;9.32;100.00
17383;BME280;8809;51.892;8.384;2023-03-21T02:25:29;100581.81;;;9.34;100.00
17383;BME280;8809;51.892;8.384;2023-03-21T02:28:08;100579.19;;;9.34;100.00
17383;BME280;8809;51.892;8.384;2023-03-21T02:30:52;100581.06;;;9.36;100.00
17383;BME280;8809;51.892;8.384;2023-03-21T02:33:40;100574.97;;;9.36;100.00
17383;BME280;8809;51.892;8.384;2023-03-21T02:36:26;100570.66;;;9.36;100.00
17383;BME280;8809;51.892;8.384;2023-03-21T02:38:59;100581.13;;;9.38;100.00
17383;BME280;8809;51.892;8.384;2023-03-21T02:41:36;100578.53;;;9.38;100.00
17383;BME280;8809;51.892;8.384;2023-03-21T02:44:17;100573.25;;;9.36;100.00
17383;BME280;8809;51.892;8.384;2023-03-21T02:46:49;100574.28;;;9.40;100.00
17383;BME280;8809;51.892;8.384;2023-03-21T02:49:21;100571.47;;;9.35;100.00
17383;BME280;8809;51.892;8.384;2023-03-21T02:51:50;100568.13;;;9.38;100.00
17383;BME280;8809;51.892;8.384;2023-03-21T02:54:21;100569.09;;;9.40;100.00
17383;BME280;8809;51.892;8.384;2023-03-21T02:56:51;100563.88;;;9.40;100.00
17383;BME280;8809;51.892;8.384;2023-03-21T02:59:20;100558.69;;;9.40;100.00
17383;BME280;8809;51.892;8.384;2023-03-21T03:01:49;100561.34;;;9.41;100.00
17383;BME280;8809;51.892;8.384;2023-03-21T03:04:18;100563.06;;;9.41;100.00
17383;BME280;8809;51.892;8.384;2023-03-21T03:07:04;100568.28;;;9.41;100.00
17383;BME280;8809;51.892;8.384;2023-03-21T03:09:44;100560.50;;;9.42;100.00
17383;BME280;8809;51.892;8.384;2023-03-21T03:12:24;100552.66;;;9.41;100.00
17383;BME280;8809;51.892;8.384;2023-03-21T03:15:03;100555.28;;;9.42;100.00
17383;BME280;8809;51.892;8.384;2023-03-21T03:17:45;100556.19;;;9.43;100.00
17383;BME280;8809;51.892;8.384;2023-03-21T03:20:29;100557.09;;;9.43;100.00
17383;BME280;8809;51.892;8.384;2023-03-21T03:23:08;100553.53;;;9.41;100.00
17383;BME280;8809;51.892;8.384;2023-03-21T03:25:43;100558.78;;;9.43;100.00
17383;BME280;8809;51.892;8.384;2023-03-21T03:28:16;100566.59;;;9.43;100.00
17383;BME280;8809;51.892;8.384;2023-03-21T03:30:45;100559.66;;;9.42;100.00
17383;BME280;8809;51.892;8.384;2023-03-21T03:33:15;100566.59;;;9.43;100.00
17383;BME280;8809;51.892;8.384;2023-03-21T03:35:49;100558.78;;;9.43;100.00
17383;BME280;8809;51.892;8.384;2023-03-21T03:38:17;100552.69;;;9.42;100.00
17383;BME280;8809;51.892;8.384;2023-03-21T03:40:49;100556.19;;;9.43;100.00
17383;BME280;8809;51.892;8.384;2023-03-21T03:43:21;100556.16;;;9.41;100.00
17383;BME280;8809;51.892;8.384;2023-03-21T03:45:55;100553.53;;;9.41;100.00
17383;BME280;8809;51.892;8.384;2023-03-21T03:48:27;100547.44;;;9.41;100.00
17383;BME280;8809;51.892;8.384;2023-03-21T03:50:57;100550.94;;;9.41;100.00
17383;BME280;8809;51.892;8.384;2023-03-21T03:53:31;100550.03;;;9.41;100.00
17383;BME280;8809;51.892;8.384;2023-03-21T03:56:04;100543.13;;;9.41;100.00
17383;BME280;8809;51.892;8.384;2023-03-21T03:58:34;100542.16;;;9.39;100.00
17383;BME280;8809;51.892;8.384;2023-03-21T04:01:04;100542.09;;;9.38;100.00
17383;BME280;8809;51.892;8.384;2023-03-21T04:03:32;100539.47;;;9.38;100.00
17383;BME280;8809;51.892;8.384;2023-03-21T04:06:01;100535.09;;;9.37;100.00
17383;BME280;8809;51.892;8.384;2023-03-21T04:08:29;100534.19;;;9.36;100.00
17383;BME280;8809;51.892;8.384;2023-03-21T04:10:56;100541.13;;;9.36;100.00
17383;BME280;8809;51.892;8.384;2023-03-21T04:13:25;100534.19;;;9.36;100.00
17383;BME280;8809;51.892;8.384;2023-03-21T04:15:51;100533.31;;;9.36;100.00
17383;BME280;8809;51.892;8.384;2023-03-21T04:18:19;100533.31;;;9.36;100.00
17383;BME280;8809;51.892;8.384;2023-03-21T04:20:47;100536.72;;;9.35;100.00
17383;BME280;8809;51.892;8.384;2023-03-21T04:23:16;100534.13;;;9.35;100.00
17383;BME280;8809;51.892;8.384;2023-03-21T04:25:43;100532.50;;;9.37;100.00
17383;BME280;8809;51.892;8.384;2023-03-21T04:28:11;100525.50;;;9.36;100.00
17383;BME280;8809;51.892;8.384;2023-03-21T04:30:40;100529.88;;;9.37;100.00
17383;BME280;8809;51.892;8.384;2023-03-21T04:33:07;100522.06;;;9.37;100.00
17383;BME280;8809;51.892;8.384;2023-03-21T04:35:34;100526.41;;;9.36;100.00
17383;BME280;8809;51.892;8.384;2023-03-21T04:38:02;100525.56;;;9.37;100.00
17383;BME280;8809;51.892;8.384;2023-03-21T04:40:30;100525.56;;;9.37;100.00
17383;BME280;8809;51.892;8.384;2023-03-21T04:42:57;100524.69;;;9.37;100.00
17383;BME280;8809;51.892;8.384;2023-03-21T04:45:28;100520.28;;;9.36;100.00
17383;BME280;8809;51.892;8.384;2023-03-21T04:47:57;100522.00;;;9.35;100.00
17383;BME280;8809;51.892;8.384;2023-03-21T04:50:24;100511.59;;;9.35;100.00
17383;BME280;8809;51.892;8.384;2023-03-21T04:52:51;100509.88;;;9.36;100.00
17383;BME280;8809;51.892;8.384;2023-03-21T04:55:18;100511.59;;;9.35;100.00
17383;BME280;8809;51.892;8.384;2023-03-21T04:57:46;100513.31;;;9.35;100.00
17383;BME280;8809;51.892;8.384;2023-03-21T05:00:14;100509.88;;;9.36;100.00
17383;BME280;8809;51.892;8.384;2023-03-21T05:02:41;100504.66;;;9.36;100.00
17383;BME280;8809;51.892;8.384;2023-03-21T05:05:10;100517.69;;;9.36;100.00
17383;BME280;8809;51.892;8.384;2023-03-21T05:07:38;100501.25;;;9.37;100.00
17383;BME280;8809;51.892;8.384;2023-03-21T05:10:07;100507.34;;;9.37;100.00
17383;BME280;8809;51.892;8.384;2023-03-21T05:12:35;100507.28;;;9.36;100.00
17383;BME280;8809;51.892;8.384;2023-03-21T05:15:02;100501.25;;;9.37;100.00
17383;BME280;8809;51.892;8.384;2023-03-21T05:17:29;100497.75;;;9.36;100.00
17383;BME280;8809;51.892;8.384;2023-03-21T05:19:56;100496.94;;;9.37;100.00
17383;BME280;8809;51.892;8.384;2023-03-21T05:22:25;100502.06;;;9.36;100.00
17383;BME280;8809;51.892;8.384;2023-03-21T05:24:53;100503.84;;;9.37;100.00
17383;BME280;8809;51.892;8.384;2023-03-21T05:27:24;100508.31;;;9.39;100.00
17383;BME280;8809;51.892;8.384;2023-03-21T05:30:10;100498.78;;;9.40;100.00
17383;BME280;8809;51.892;8.384;2023-03-21T05:32:41;100501.41;;;9.40;100.00
17383;BME280;8809;51.892;8.384;2023-03-21T05:35:12;100504.97;;;9.42;100.00
17383;BME280;8809;51.892;8.384;2023-03-21T05:37:41;100507.59;;;9.43;100.00
17383;BME280;8809;51.892;8.384;2023-03-21T05:40:08;100507.69;;;9.45;100.00
17383;BME280;8809;51.892;8.384;2023-03-21T05:42:36;100497.19;;;9.43;100.00
17383;BME280;8809;51.892;8.384;2023-03-21T05:45:03;100502.38;;;9.42;100.00
17383;BME280;8809;51.892;8.384;2023-03-21T05:47:31;100498.09;;;9.44;100.00
17383;BME280;8809;51.892;8.384;2023-03-21T05:49:58;100496.38;;;9.44;100.00
17383;BME280;8809;51.892;8.384;2023-03-21T05:52:25;100504.19;;;9.44;100.00
17383;BME280;8809;51.892;8.384;2023-03-21T05:54:55;100506.03;;;9.47;100.00
17383;BME280;8809;51.892;8.384;2023-03-21T05:57:23;100502.63;;;9.48;100.00
17383;BME280;8809;51.892;8.384;2023-03-21T05:59:50;100506.19;;;9.50;100.00
17383;BME280;8809;51.892;8.384;2023-03-21T06:02:20;100508.88;;;9.51;100.00
17383;BME280;8809;51.892;8.384;2023-03-21T06:04:47;100505.41;;;9.52;100.00
17383;BME280;8809;51.892;8.384;2023-03-21T06:07:14;100506.38;;;9.54;100.00
17383;BME280;8809;51.892;8.384;2023-03-21T06:09:41;100498.63;;;9.56;100.00
17383;BME280;8809;51.892;8.384;2023-03-21T06:12:10;100497.81;;;9.57;100.00
17383;BME280;8809;51.892;8.384;2023-03-21T06:14:37;100493.44;;;9.56;100.00
17383;BME280;8809;51.892;8.384;2023-03-21T06:17:04;100504.81;;;9.58;100.00
17383;BME280;8809;51.892;8.384;2023-03-21T06:19:31;100501.31;;;9.57;100.00
17383;BME280;8809;51.892;8.384;2023-03-21T06:21:58;100504.88;;;9.59;100.00
17383;BME280;8809;51.892;8.384;2023-03-21T06:24:27;100503.16;;;9.60;100.00
17383;BME280;8809;51.892;8.384;2023-03-21T06:26:54;100499.75;;;9.61;100.00
17383;BME280;8809;51.892;8.384;2023-03-21T06:29:23;100506.69;;;9.62;100.00
17383;BME280;8809;51.892;8.384;2023-03-21T06:31:50;100504.09;;;9.62;100.00
17383;BME280;8809;51.892;8.384;2023-03-21T06:34:17;100509.44;;;9.65;100.00
17383;BME280;8809;51.892;8.384;2023-03-21T06:36:44;100510.41;;;9.67;100.00
17383;BME280;8809;51.892;8.384;2023-03-21T06:39:15;100513.09;;;9.68;100.00
17383;BME280;8809;51.892;8.384;2023-03-21T06:41:42;100508.78;;;9.69;100.00
17383;BME280;8809;51.892;8.384;2023-03-21T06:44:09;100502.69;;;9.68;100.00
17383;BME280;8809;51.892;8.384;2023-03-21T06:46:38;100509.78;;;9.73;100.00
17383;BME280;8809;51.892;8.384;2023-03-21T06:49:07;100514.91;;;9.71;100.00
17383;BME280;8809;51.892;8.384;2023-03-21T06:51:34;100505.47;;;9.73;100.00
17383;BME280;8809;51.892;8.384;2023-03-21T06:54:02;100507.25;;;9.74;100.00
17383;BME280;8809;51.892;8.384;2023-03-21T06:56:29;100512.53;;;9.76;100.00
17383;BME280;8809;51.892;8.384;2023-03-21T06:58:56;100510.81;;;9.76;100.00
17383;BME280;8809;51.892;8.384;2023-03-21T07:01:23;100513.50;;;9.78;100.00
17383;BME280;8809;51.892;8.384;2023-03-21T07:03:53;100512.75;;;9.80;100.00
17383;BME280;8809;51.892;8.384;2023-03-21T07:06:24;100513.66;;;9.82;100.00
17383;BME280;8809;51.892;8.384;2023-03-21T07:08:52;100510.25;;;9.83;100.00
17383;BME280;8809;51.892;8.384;2023-03-21T07:11:22;100506.00;;;9.85;100.00
17383;BME280;8809;51.892;8.384;2023-03-21T07:13:50;100515.66;;;9.88;100.00
17383;BME280;8809;51.892;8.384;2023-03-21T07:16:19;100509.66;;;9.90;100.00
17383;BME280;8809;51.892;8.384;2023-03-21T07:18:47;100514.88;;;9.90;100.00
17383;BME280;8809;51.892;8.384;2023-03-21T07:21:16;100515.91;;;9.94;100.00
17383;BME280;8809;51.892;8.384;2023-03-21T07:23:43;100517.78;;;9.96;100.00
17383;BME280;8809;51.892;8.384;2023-03-21T07:26:11;100519.56;;;9.97;100.00
17383;BME280;8809;51.892;8.384;2023-03-21T07:28:41;100510.91;;;9.98;100.00
17383;BME280;8809;51.892;8.384;2023-03-21T07:31:13;100511.81;;;9.99;100.00
17383;BME280;8809;51.892;8.384;2023-03-21T07:33:42;100510.94;;;10.00;100.00
17383;BME280;8809;51.892;8.384;2023-03-21T07:36:11;100519.66;;;10.00;100.00
17383;BME280;8809;51.892;8.384;2023-03-21T07:38:41;100518.97;;;10.04;100.00
17383;BME280;8809;51.892;8.384;2023-03-21T07:41:10;100519.13;;;10.08;100.00
17383;BME280;8809;51.892;8.384;2023-03-21T07:43:37;100521.59;;;10.04;100.00
17383;BME280;8809;51.892;8.384;2023-03-21T07:46:05;100519.81;;;10.03;100.00
17383;BME280;8809;51.892;8.384;2023-03-21T07:48:32;100520.63;;;10.02;100.00
17383;BME280;8809;51.892;8.384;2023-03-21T07:50:59;100518.84;;;10.01;100.00
17383;BME280;8809;51.892;8.384;2023-03-21T07:53:31;100524.19;;;10.04;100.00
17383;BME280;8809;51.892;8.384;2023-03-21T07:55:59;100523.28;;;10.04;100.00
17383;BME280;8809;51.892;8.384;2023-03-21T07:58:26;100530.09;;;10.00;100.00
17383;BME280;8809;51.892;8.384;2023-03-21T08:00:53;100527.38;;;9.97;100.00
17383;BME280;8809;51.892;8.384;2023-03-21T08:03:21;100523.72;;;9.94;100.00
17383;BME280;8809;51.892;8.384;2023-03-21T08:05:51;100527.09;;;9.91;100.00
17383;BME280;8809;51.892;8.384;2023-03-21T08:08:18;100522.53;;;9.86;100.00
17383;BME280;8809;51.892;8.384;2023-03-21T08:10:45;100523.16;;;9.80;100.00
17383;BME280;8809;51.892;8.384;2023-03-21T08:13:16;100526.44;;;9.76;100.00
17383;BME280;8809;51.892;8.384;2023-03-21T08:15:43;100521.97;;;9.74;100.00
17383;BME280;8809;51.892;8.384;2023-03-21T08:18:11;100525.47;;;9.74;100.00
17383;BME280;8809;51.892;8.384;2023-03-21T08:20:41;100520.13;;;9.71;100.00
17383;BME280;8809;51.892;8.384;2023-03-21T08:23:08;100525.16;;;9.66;100.00
17383;BME280;8809;51.892;8.384;2023-03-21T08:25:35;100526.13;;;9.68;100.00
17383;BME280;8809;51.892;8.384;2023-03-21T08:28:03;100521.88;;;9.71;100.00
17383;BME280;8809;51.892;8.384;2023-03-21T08:30:33;100527.00;;;9.69;100.00
17383;BME280;8809;51.892;8.384;2023-03-21T08:33:00;100527.81;;;9.68;100.00
17383;BME280;8809;51.892;8.384;2023-03-21T08:35:30;100520.91;;;9.68;100.00
17383;BME280;8809;51.892;8.384;2023-03-21T08:37:58;100520.00;;;9.68;100.00
17383;BME280;8809;51.892;8.384;2023-03-21T08:40:26;100524.34;;;9.67;100.00
17383;BME280;8809;51.892;8.384;2023-03-21T08:42:53;100524.13;;;9.63;100.00
17383;BME280;8809;51.892;8.384;2023-03-21T08:45:24;100524.19;;;9.64;100.00
17383;BME280;8809;51.892;8.384;2023-03-21T08:47:53;100525.00;;;9.63;100.00
17383;BME280;8809;51.892;8.384;2023-03-21T08:50:22;100528.44;;;9.62;100.00
17383;BME280;8809;51.892;8.384;2023-03-21T08:52:49;100525.72;;;9.59;100.00
17383;BME280;8809;51.892;8.384;2023-03-21T08:55:17;100526.38;;;9.55;100.00
17383;BME280;8809;51.892;8.384;2023-03-21T08:57:45;100527.13;;;9.53;100.00
17383;BME280;8809;51.892;8.384;2023-03-21T09:00:15;100528.03;;;9.53;100.00
17383;BME280;8809;51.892;8.384;2023-03-21T09:02:43;100534.84;;;9.50;100.00
17383;BME280;8809;51.892;8.384;2023-03-21T09:05:13;100528.91;;;9.54;100.00
17383;BME280;8809;51.892;8.384;2023-03-21T09:07:42;100517.63;;;9.53;100.00
17383;BME280;8809;51.892;8.384;2023-03-21T09:10:11;100529.97;;;9.57;100.00
17383;BME280;8809;51.892;8.384;2023-03-21T09:12:41;100526.47;;;9.57;100.00
17383;BME280;8809;51.892;8.384;2023-03-21T09:15:10;100527.22;;;9.54;100.00
17383;BME280;8809;51.892;8.384;2023-03-21T09:17:39;100527.44;;;9.59;100.00
17383;BME280;8809;51.892;8.384;2023-03-21T09:20:08;100530.72;;;9.55;100.00
17383;BME280;8809;51.892;8.384;2023-03-21T09:22:38;100523.72;;;9.54;100.00
17383;BME280;8809;51.892;8.384;2023-03-21T09:25:05;100527.22;;;9.54;100.00
17383;BME280;8809;51.892;8.384;2023-03-21T09:27:35;100531.53;;;9.54;100.00
17383;BME280;8809;51.892;8.384;2023-03-21T09:30:06;100522.22;;;9.59;100.00
17383;BME280;8809;51.892;8.384;2023-03-21T09:32:35;100523.22;;;9.62;100.00
17383;BME280;8809;51.892;8.384;2023-03-21T09:35:04;100527.63;;;9.63;100.00
17383;BME280;8809;51.892;8.384;2023-03-21T09:37:32;100519.88;;;9.65;100.00
17383;BME280;8809;51.892;8.384;2023-03-21T09:40:15;100527.69;;;9.65;100.00
17383;BME280;8809;51.892;8.384;2023-03-21T09:42:54;100519.06;;;9.66;100.00
17383;BME280;8809;51.892;8.384;2023-03-21T09:45:30;100517.41;;;9.68;100.00
17383;BME280;8809;51.892;8.384;2023-03-21T09:48:01;100513.97;;;9.69;100.00
17383;BME280;8809;51.892;8.384;2023-03-21T09:50:34;100521.66;;;9.66;100.00
17383;BME280;8809;51.892;8.384;2023-03-21T09:53:05;100516.38;;;9.64;100.00
17383;BME280;8809;51.892;8.384;2023-03-21T09:55:37;100518.31;;;9.68;100.00
17383;BME280;8809;51.892;8.384;2023-03-21T09:58:06;100514.09;;;9.72;100.00
17383;BME280;8809;51.892;8.384;2023-03-21T10:00:39;100515.00;;;9.73;100.00
17383;BME280;8809;51.892;8.384;2023-03-21T10:03:18;100513.19;;;9.72;100.00
17383;BME280;8809;51.892;8.384;2023-03-21T10:05:51;100514.91;;;9.71;100.00
17383;BME280;8809;51.892;8.384;2023-03-21T10:08:25;100506.28;;;9.72;100.00
17383;BME280;8809;51.892;8.384;2023-03-21T10:10:59;100509.84;;;9.74;100.00
17383;BME280;8809;51.892;8.384;2023-03-21T10:13:33;100511.72;;;9.77;100.00
17383;BME280;8809;51.892;8.384;2023-03-21T10:16:08;100502.25;;;9.79;100.00
17383;BME280;8809;51.892;8.384;2023-03-21T10:18:40;100503.06;;;9.78;100.00
17383;BME280;8809;51.892;8.384;2023-03-21T10:21:14;100501.59;;;9.84;100.00
17383;BME280;8809;51.892;8.384;2023-03-21T10:23:43;100504.06;;;9.81;100.00
17383;BME280;8809;51.892;8.384;2023-03-21T10:26:12;100496.47;;;9.86;100.00
17383;BME280;8809;51.892;8.384;2023-03-21T10:28:41;100496.78;;;9.93;100.00
17383;BME280;8809;51.892;8.384;2023-03-21T10:31:16;100498.50;;;9.93;100.00
17383;BME280;8809;51.892;8.384;2023-03-21T10:33:48;100497.88;;;9.98;100.00
17383;BME280;8809;51.892;8.384;2023-03-21T10:36:20;100490.97;;;9.99;100.00
17383;BME280;8809;51.892;8.384;2023-03-21T10:38:52;100495.28;;;9.98;100.00
17383;BME280;8809;51.892;8.384;2023-03-21T10:41:22;100486.50;;;9.96;100.00
17383;BME280;8809;51.892;8.384;2023-03-21T10:44:06;100484.34;;;10.07;100.00
17383;BME280;8809;51.892;8.384;2023-03-21T10:46:34;100481.66;;;10.05;100.00
17383;BME280;8809;51.892;8.384;2023-03-21T10:49:01;100490.38;;;10.06;100.00
17383;BME280;8809;51.892;8.384;2023-03-21T10:51:31;100489.66;;;10.10;100.00
17383;BME280;8809;51.892;8.384;2023-03-21T10:54:03;100485.31;;;10.09;100.00
17383;BME280;8809;51.892;8.384;2023-03-21T10:56:36;100482.50;;;10.04;100.00
17383;BME280;8809;51.892;8.384;2023-03-21T10:59:05;100475.72;;;10.10;100.00
17383;BME280;8809;51.892;8.384;2023-03-21T11:01:38;100483.38;;;10.05;100.00
17383;BME280;8809;51.892;8.384;2023-03-21T11:04:13;100480.03;;;10.08;100.00
17383;BME280;8809;51.892;8.384;2023-03-21T11:06:44;100484.13;;;10.02;100.00
17383;BME280;8809;51.892;8.384;2023-03-21T11:09:15;100479.06;;;10.05;100.00
17383;BME280;8809;51.892;8.384;2023-03-21T11:11:52;100477.66;;;10.14;100.00
17383;BME280;8809;51.892;8.384;2023-03-21T11:14:31;100470.59;;;10.11;100.00
17383;BME280;8809;51.892;8.384;2023-03-21T11:16:59;100470.97;;;10.19;100.00
17383;BME280;8809;51.892;8.384;2023-03-21T11:19:29;100473.69;;;10.22;100.00
17383;BME280;8809;51.892;8.384;2023-03-21T11:21:58;100466.75;;;10.22;100.00
17383;BME280;8809;51.892;8.384;2023-03-21T11:24:28;100459.00;;;10.24;100.00
17383;BME280;8809;51.892;8.384;2023-03-21T11:26:58;100464.44;;;10.30;100.00
17383;BME280;8809;51.892;8.384;2023-03-21T11:29:29;100465.41;;;10.32;100.00
17383;BME280;8809;51.892;8.384;2023-03-21T11:31:59;100461.91;;;10.31;100.00
17383;BME280;8809;51.892;8.384;2023-03-21T11:34:31;100460.78;;;10.25;100.00
17383;BME280;8809;51.892;8.384;2023-03-21T11:37:01;100457.28;;;10.24;100.00
17383;BME280;8809;51.892;8.384;2023-03-21T11:39:34;100453.63;;;10.21;100.00
17383;BME280;8809;51.892;8.384;2023-03-21T11:42:25;100455.56;;;10.25;100.00
17383;BME280;8809;51.892;8.384;2023-03-21T11:45:02;100450.34;;;10.25;100.00
17383;BME280;8809;51.892;8.384;2023-03-21T11:47:31;100439.97;;;10.26;100.00
17383;BME280;8809;51.892;8.384;2023-03-21T11:49:59;100445.38;;;10.31;100.00
17383;BME280;8809;51.892;8.384;2023-03-21T11:52:33;100444.31;;;10.26;100.00
17383;BME280;8809;51.892;8.384;2023-03-21T11:55:30;100431.44;;;10.30;100.00
17383;BME280;8809;51.892;8.384;2023-03-21T11:58:08;100429.72;;;10.31;100.00
17383;BME280;8809;51.892;8.384;2023-03-21T12:00:43;100426.41;;;10.35;100.00
17383;BME280;8809;51.892;8.384;2023-03-21T12:03:37;100418.72;;;10.38;100.00
17383;BME280;8809;51.892;8.384;2023-03-21T12:06:15;100415.44;;;10.44;100.00
17383;BME280;8809;51.892;8.384;2023-03-21T12:08:49;100411.25;;;10.47;100.00
17383;BME280;8809;51.892;8.384;2023-03-21T12:11:23;100403.38;;;10.46;100.00
17383;BME280;8809;51.892;8.384;2023-03-21T12:14:02;100400.94;;;10.50;100.00
17383;BME280;8809;51.892;8.384;2023-03-21T12:16:48;100401.06;;;10.53;100.00
17383;BME280;8809;51.892;8.384;2023-03-21T12:19:38;100400.69;;;10.44;100.00
17383;BME280;8809;51.892;8.384;2023-03-21T12:22:14;100393.69;;;10.43;100.00
17383;BME280;8809;51.892;8.384;2023-03-21T12:24:50;100393.88;;;10.48;100.00
17383;BME280;8809;51.892;8.384;2023-03-21T12:27:28;100390.56;;;10.52;100.00
17383;BME280;8809;51.892;8.384;2023-03-21T12:30:12;100391.63;;;10.57;100.00
17383;BME280;8809;51.892;8.384;2023-03-21T12:32:52;100382.13;;;10.59;100.00
17383;BME280;8809;51.892;8.384;2023-03-21T12:35:34;100384.78;;;10.60;100.00
17383;BME280;8809;51.892;8.384;2023-03-21T12:38:14;100380.19;;;10.53;100.00
17383;BME280;8809;51.892;8.384;2023-03-21T12:40:59;100378.75;;;10.61;100.00
17383;BME280;8809;51.892;8.384;2023-03-21T12:43:34;100383.00;;;10.59;100.00
17383;BME280;8809;51.892;8.384;2023-03-21T12:46:10;100384.63;;;10.56;100.00
17383;BME280;8809;51.892;8.384;2023-03-21T12:48:44;100387.19;;;10.54;100.00
17383;BME280;8809;51.892;8.384;2023-03-21T12:51:17;100373.41;;;10.58;100.00
17383;BME280;8809;51.892;8.384;2023-03-21T12:53:57;100373.41;;;10.58;100.00
17383;BME280;8809;51.892;8.384;2023-03-21T12:56:30;100373.66;;;10.64;100.00
17383;BME280;8809;51.892;8.384;2023-03-21T12:59:02;100369.41;;;10.66;100.00
17383;BME280;8809;51.892;8.384;2023-03-21T13:01:35;100366.78;;;10.66;100.00
17383;BME280;8809;51.892;8.384;2023-03-21T13:04:29;100365.72;;;10.61;100.00
17383;BME280;8809;51.892;8.384;2023-03-21T13:07:00;100365.72;;;10.61;100.00
17383;BME280;8809;51.892;8.384;2023-03-21T13:09:34;100366.78;;;10.66;100.00
17383;BME280;8809;51.892;8.384;2023-03-21T13:12:07;100364.34;;;10.71;100.00
17383;BME280;8809;51.892;8.384;2023-03-21T13:14:44;100354.06;;;10.75;100.00
17383;BME280;8809;51.892;8.384;2023-03-21T13:17:24;100355.13;;;10.81;100.00
17383;BME280;8809;51.892;8.384;2023-03-21T13:19:59;100355.44;;;10.90;100.00
17383;BME280;8809;51.892;8.384;2023-03-21T13:22:35;100349.53;;;10.94;100.00
17383;BME280;8809;51.892;8.384;2023-03-21T13:25:04;100345.00;;;10.90;100.00